<?xml version="1.0" encoding="UTF-8" standalone="no" ?>
<gpx xmlns="http://www.topografix.com/GPX/1/1" xmlns:xsi="http://www.w3.org/2001/XMLSchema-instance" xsi:schemaLocation="http://www.topografix.com/GPX/1/1 http://www.topografix.com/GPX/1/1/gpx.xsd" version="1.1" creator="VisuGPX - https://www.visugpx.com">
  <metadata>
    <name>Tour de France 2019</name>
    <desc><![CDATA[4272km en 2 mois en tandem avec notre petit chien dans le panier avant]]></desc>
  </metadata>
  <trk>
    <name><![CDATA[Tracé 20190923-100551]]></name>
    <trkseg>
      <trkpt lat="48.74962" lon="5.62447">
        <ele>248.342</ele>
        <time>2019-09-23T08:07:06.000Z</time>
      </trkpt>
      <trkpt lat="48.74872" lon="5.62501">
        <ele>249.417</ele>
        <time>2019-09-23T08:10:06.000Z</time>
      </trkpt>
      <trkpt lat="48.74798" lon="5.62632">
        <ele>253.325</ele>
        <time>2019-09-23T08:10:36.000Z</time>
      </trkpt>
      <trkpt lat="48.74729" lon="5.62773">
        <ele>251.409</ele>
        <time>2019-09-23T08:11:06.000Z</time>
      </trkpt>
      <trkpt lat="48.74641" lon="5.62928">
        <ele>247.696</ele>
        <time>2019-09-23T08:11:36.000Z</time>
      </trkpt>
      <trkpt lat="48.74536" lon="5.63131">
        <ele>243.046</ele>
        <time>2019-09-23T08:12:06.000Z</time>
      </trkpt>
      <trkpt lat="48.74429" lon="5.6333">
        <ele>240.284</ele>
        <time>2019-09-23T08:12:36.000Z</time>
      </trkpt>
      <trkpt lat="48.74322" lon="5.63543">
        <ele>238.954</ele>
        <time>2019-09-23T08:13:06.000Z</time>
      </trkpt>
      <trkpt lat="48.74234" lon="5.63654">
        <ele>237.445</ele>
        <time>2019-09-23T08:13:36.000Z</time>
      </trkpt>
      <trkpt lat="48.7407" lon="5.63578">
        <ele>235.258</ele>
        <time>2019-09-23T08:14:06.000Z</time>
      </trkpt>
      <trkpt lat="48.73922" lon="5.63512">
        <ele>233.154</ele>
        <time>2019-09-23T08:14:36.000Z</time>
      </trkpt>
      <trkpt lat="48.73775" lon="5.63446">
        <ele>232.862</ele>
        <time>2019-09-23T08:15:06.000Z</time>
      </trkpt>
      <trkpt lat="48.7365" lon="5.63382">
        <ele>236.526</ele>
        <time>2019-09-23T08:15:36.000Z</time>
      </trkpt>
      <trkpt lat="48.73552" lon="5.63423">
        <ele>244.681</ele>
        <time>2019-09-23T08:16:06.000Z</time>
      </trkpt>
      <trkpt lat="48.73489" lon="5.63556">
        <ele>248.718</ele>
        <time>2019-09-23T08:16:36.000Z</time>
      </trkpt>
      <trkpt lat="48.73453" lon="5.63668">
        <ele>244.459</ele>
        <time>2019-09-23T08:17:06.000Z</time>
      </trkpt>
      <trkpt lat="48.73339" lon="5.6363">
        <ele>244.309</ele>
        <time>2019-09-23T08:17:36.000Z</time>
      </trkpt>
      <trkpt lat="48.73222" lon="5.63628">
        <ele>246.231</ele>
        <time>2019-09-23T08:18:06.000Z</time>
      </trkpt>
      <trkpt lat="48.73073" lon="5.63444">
        <ele>238.632</ele>
        <time>2019-09-23T08:18:36.000Z</time>
      </trkpt>
      <trkpt lat="48.72893" lon="5.63487">
        <ele>230.271</ele>
        <time>2019-09-23T08:19:06.000Z</time>
      </trkpt>
      <trkpt lat="48.72766" lon="5.63517">
        <ele>231.648</ele>
        <time>2019-09-23T08:19:36.000Z</time>
      </trkpt>
      <trkpt lat="48.72638" lon="5.63546">
        <ele>233.414</ele>
        <time>2019-09-23T08:20:06.000Z</time>
      </trkpt>
      <trkpt lat="48.72508" lon="5.63579">
        <ele>233.885</ele>
        <time>2019-09-23T08:20:36.000Z</time>
      </trkpt>
      <trkpt lat="48.72379" lon="5.63611">
        <ele>231.402</ele>
        <time>2019-09-23T08:21:06.000Z</time>
      </trkpt>
      <trkpt lat="48.72253" lon="5.63641">
        <ele>232.29</ele>
        <time>2019-09-23T08:21:36.000Z</time>
      </trkpt>
      <trkpt lat="48.72143" lon="5.63668">
        <ele>236.573</ele>
        <time>2019-09-23T08:22:06.000Z</time>
      </trkpt>
      <trkpt lat="48.71992" lon="5.63688">
        <ele>234.232</ele>
        <time>2019-09-23T08:22:36.000Z</time>
      </trkpt>
      <trkpt lat="48.71883" lon="5.63589">
        <ele>241.484</ele>
        <time>2019-09-23T08:23:06.000Z</time>
      </trkpt>
      <trkpt lat="48.7177" lon="5.6356">
        <ele>245.218</ele>
        <time>2019-09-23T08:23:36.000Z</time>
      </trkpt>
      <trkpt lat="48.71639" lon="5.63545">
        <ele>244.897</ele>
        <time>2019-09-23T08:24:06.000Z</time>
      </trkpt>
      <trkpt lat="48.71503" lon="5.63521">
        <ele>241.577</ele>
        <time>2019-09-23T08:24:36.000Z</time>
      </trkpt>
      <trkpt lat="48.71382" lon="5.63447">
        <ele>244.216</ele>
        <time>2019-09-23T08:25:06.000Z</time>
      </trkpt>
      <trkpt lat="48.71276" lon="5.63462">
        <ele>251.599</ele>
        <time>2019-09-23T08:25:36.000Z</time>
      </trkpt>
      <trkpt lat="48.71168" lon="5.63418">
        <ele>258.725</ele>
        <time>2019-09-23T08:26:06.000Z</time>
      </trkpt>
      <trkpt lat="48.711" lon="5.63224">
        <ele>250.59</ele>
        <time>2019-09-23T08:26:36.000Z</time>
      </trkpt>
      <trkpt lat="48.71047" lon="5.63036">
        <ele>240.656</ele>
        <time>2019-09-23T08:27:06.000Z</time>
      </trkpt>
      <trkpt lat="48.71063" lon="5.62803">
        <ele>232.911</ele>
        <time>2019-09-23T08:27:39.000Z</time>
      </trkpt>
      <trkpt lat="48.70965" lon="5.62708">
        <ele>232.04</ele>
        <time>2019-09-23T08:28:09.000Z</time>
      </trkpt>
      <trkpt lat="48.70836" lon="5.62659">
        <ele>233.76</ele>
        <time>2019-09-23T08:28:39.000Z</time>
      </trkpt>
      <trkpt lat="48.70709" lon="5.62611">
        <ele>233.344</ele>
        <time>2019-09-23T08:29:09.000Z</time>
      </trkpt>
      <trkpt lat="48.70581" lon="5.62562">
        <ele>232.142</ele>
        <time>2019-09-23T08:29:39.000Z</time>
      </trkpt>
      <trkpt lat="48.70462" lon="5.62517">
        <ele>233.564</ele>
        <time>2019-09-23T08:30:09.000Z</time>
      </trkpt>
      <trkpt lat="48.70342" lon="5.62471">
        <ele>233.064</ele>
        <time>2019-09-23T08:30:39.000Z</time>
      </trkpt>
      <trkpt lat="48.70216" lon="5.62423">
        <ele>235.519</ele>
        <time>2019-09-23T08:31:09.000Z</time>
      </trkpt>
      <trkpt lat="48.70091" lon="5.62399">
        <ele>234.297</ele>
        <time>2019-09-23T08:31:39.000Z</time>
      </trkpt>
      <trkpt lat="48.6997" lon="5.62394">
        <ele>233.432</ele>
        <time>2019-09-23T08:32:09.000Z</time>
      </trkpt>
      <trkpt lat="48.69849" lon="5.62386">
        <ele>232.541</ele>
        <time>2019-09-23T08:32:39.000Z</time>
      </trkpt>
      <trkpt lat="48.69725" lon="5.62379">
        <ele>234.172</ele>
        <time>2019-09-23T08:33:09.000Z</time>
      </trkpt>
      <trkpt lat="48.69603" lon="5.62372">
        <ele>236.238</ele>
        <time>2019-09-23T08:33:39.000Z</time>
      </trkpt>
      <trkpt lat="48.69482" lon="5.6237">
        <ele>238.338</ele>
        <time>2019-09-23T08:34:09.000Z</time>
      </trkpt>
      <trkpt lat="48.69351" lon="5.62354">
        <ele>237.624</ele>
        <time>2019-09-23T08:34:39.000Z</time>
      </trkpt>
      <trkpt lat="48.69239" lon="5.62293">
        <ele>237.472</ele>
        <time>2019-09-23T08:35:09.000Z</time>
      </trkpt>
      <trkpt lat="48.69132" lon="5.62248">
        <ele>238.01</ele>
        <time>2019-09-23T08:35:39.000Z</time>
      </trkpt>
      <trkpt lat="48.69054" lon="5.62165">
        <ele>243.934</ele>
        <time>2019-09-23T08:36:12.000Z</time>
      </trkpt>
      <trkpt lat="48.69012" lon="5.62223">
        <ele>241.85</ele>
        <time>2019-09-23T08:36:42.000Z</time>
      </trkpt>
      <trkpt lat="48.68899" lon="5.62181">
        <ele>241.115</ele>
        <time>2019-09-23T08:37:12.000Z</time>
      </trkpt>
      <trkpt lat="48.68805" lon="5.62142">
        <ele>245.493</ele>
        <time>2019-09-23T08:37:42.000Z</time>
      </trkpt>
      <trkpt lat="48.68792" lon="5.62119">
        <ele>246.071</ele>
        <time>2019-09-23T08:46:21.000Z</time>
      </trkpt>
      <trkpt lat="48.68724" lon="5.62132">
        <ele>249.207</ele>
        <time>2019-09-23T08:46:54.000Z</time>
      </trkpt>
      <trkpt lat="48.68653" lon="5.62126">
        <ele>249.868</ele>
        <time>2019-09-23T08:47:24.000Z</time>
      </trkpt>
      <trkpt lat="48.6855" lon="5.62115">
        <ele>251.356</ele>
        <time>2019-09-23T08:47:54.000Z</time>
      </trkpt>
      <trkpt lat="48.68444" lon="5.62115">
        <ele>256.582</ele>
        <time>2019-09-23T08:48:24.000Z</time>
      </trkpt>
      <trkpt lat="48.68571" lon="5.62084">
        <ele>255.228</ele>
        <time>2019-09-23T08:48:54.000Z</time>
      </trkpt>
      <trkpt lat="48.68662" lon="5.62277">
        <ele>249.92</ele>
        <time>2019-09-23T08:49:24.000Z</time>
      </trkpt>
      <trkpt lat="48.68716" lon="5.6242">
        <ele>253.467</ele>
        <time>2019-09-23T08:49:54.000Z</time>
      </trkpt>
      <trkpt lat="48.68733" lon="5.62614">
        <ele>262.18</ele>
        <time>2019-09-23T08:50:24.000Z</time>
      </trkpt>
      <trkpt lat="48.68682" lon="5.62796">
        <ele>261.119</ele>
        <time>2019-09-23T08:50:54.000Z</time>
      </trkpt>
      <trkpt lat="48.68573" lon="5.63034">
        <ele>251.251</ele>
        <time>2019-09-23T08:51:24.000Z</time>
      </trkpt>
      <trkpt lat="48.68443" lon="5.63181">
        <ele>248.289</ele>
        <time>2019-09-23T08:51:54.000Z</time>
      </trkpt>
      <trkpt lat="48.68351" lon="5.63355">
        <ele>243.263</ele>
        <time>2019-09-23T08:52:24.000Z</time>
      </trkpt>
      <trkpt lat="48.68254" lon="5.63499">
        <ele>245.792</ele>
        <time>2019-09-23T08:52:54.000Z</time>
      </trkpt>
      <trkpt lat="48.68164" lon="5.63613">
        <ele>248.62</ele>
        <time>2019-09-23T08:53:24.000Z</time>
      </trkpt>
      <trkpt lat="48.68098" lon="5.63724">
        <ele>250.344</ele>
        <time>2019-09-23T08:53:54.000Z</time>
      </trkpt>
      <trkpt lat="48.68036" lon="5.63823">
        <ele>251.093</ele>
        <time>2019-09-23T08:54:24.000Z</time>
      </trkpt>
      <trkpt lat="48.67969" lon="5.63935">
        <ele>253.866</ele>
        <time>2019-09-23T08:54:54.000Z</time>
      </trkpt>
      <trkpt lat="48.67893" lon="5.64068">
        <ele>254.131</ele>
        <time>2019-09-23T08:55:24.000Z</time>
      </trkpt>
      <trkpt lat="48.6782" lon="5.64187">
        <ele>255.966</ele>
        <time>2019-09-23T08:55:54.000Z</time>
      </trkpt>
      <trkpt lat="48.67757" lon="5.64307">
        <ele>259.146</ele>
        <time>2019-09-23T08:56:24.000Z</time>
      </trkpt>
      <trkpt lat="48.67715" lon="5.6443">
        <ele>261.55</ele>
        <time>2019-09-23T08:56:54.000Z</time>
      </trkpt>
      <trkpt lat="48.67689" lon="5.64549">
        <ele>261.163</ele>
        <time>2019-09-23T08:57:24.000Z</time>
      </trkpt>
      <trkpt lat="48.67658" lon="5.64664">
        <ele>266.334</ele>
        <time>2019-09-23T08:57:54.000Z</time>
      </trkpt>
      <trkpt lat="48.67622" lon="5.6477">
        <ele>270.74</ele>
        <time>2019-09-23T08:58:24.000Z</time>
      </trkpt>
      <trkpt lat="48.67592" lon="5.64865">
        <ele>273.255</ele>
        <time>2019-09-23T08:58:54.000Z</time>
      </trkpt>
      <trkpt lat="48.67564" lon="5.64946">
        <ele>277.261</ele>
        <time>2019-09-23T08:59:24.000Z</time>
      </trkpt>
      <trkpt lat="48.67541" lon="5.65022">
        <ele>280.106</ele>
        <time>2019-09-23T08:59:54.000Z</time>
      </trkpt>
      <trkpt lat="48.67504" lon="5.65099">
        <ele>282.869</ele>
        <time>2019-09-23T09:00:24.000Z</time>
      </trkpt>
      <trkpt lat="48.67449" lon="5.65147">
        <ele>287.314</ele>
        <time>2019-09-23T09:00:54.000Z</time>
      </trkpt>
      <trkpt lat="48.67387" lon="5.65155">
        <ele>293.44</ele>
        <time>2019-09-23T09:01:24.000Z</time>
      </trkpt>
      <trkpt lat="48.67322" lon="5.65148">
        <ele>295.971</ele>
        <time>2019-09-23T09:01:54.000Z</time>
      </trkpt>
      <trkpt lat="48.67265" lon="5.65142">
        <ele>300.255</ele>
        <time>2019-09-23T09:02:24.000Z</time>
      </trkpt>
      <trkpt lat="48.67205" lon="5.65139">
        <ele>306.569</ele>
        <time>2019-09-23T09:02:54.000Z</time>
      </trkpt>
      <trkpt lat="48.67155" lon="5.6521">
        <ele>311.402</ele>
        <time>2019-09-23T09:03:27.000Z</time>
      </trkpt>
      <trkpt lat="48.67164" lon="5.653">
        <ele>313.183</ele>
        <time>2019-09-23T09:03:57.000Z</time>
      </trkpt>
      <trkpt lat="48.6718" lon="5.65382">
        <ele>316.138</ele>
        <time>2019-09-23T09:04:27.000Z</time>
      </trkpt>
      <trkpt lat="48.67195" lon="5.65463">
        <ele>322.926</ele>
        <time>2019-09-23T09:04:57.000Z</time>
      </trkpt>
      <trkpt lat="48.67208" lon="5.65559">
        <ele>331.498</ele>
        <time>2019-09-23T09:05:27.000Z</time>
      </trkpt>
      <trkpt lat="48.6721" lon="5.6564">
        <ele>330.852</ele>
        <time>2019-09-23T09:05:57.000Z</time>
      </trkpt>
      <trkpt lat="48.6721" lon="5.65731">
        <ele>333.102</ele>
        <time>2019-09-23T09:06:27.000Z</time>
      </trkpt>
      <trkpt lat="48.6721" lon="5.65831">
        <ele>334.625</ele>
        <time>2019-09-23T09:06:57.000Z</time>
      </trkpt>
      <trkpt lat="48.67205" lon="5.6594">
        <ele>337.062</ele>
        <time>2019-09-23T09:07:27.000Z</time>
      </trkpt>
      <trkpt lat="48.67193" lon="5.66033">
        <ele>336.648</ele>
        <time>2019-09-23T09:07:57.000Z</time>
      </trkpt>
      <trkpt lat="48.67166" lon="5.66125">
        <ele>341.173</ele>
        <time>2019-09-23T09:08:27.000Z</time>
      </trkpt>
      <trkpt lat="48.67135" lon="5.66217">
        <ele>342.614</ele>
        <time>2019-09-23T09:08:57.000Z</time>
      </trkpt>
      <trkpt lat="48.67078" lon="5.66364">
        <ele>341.484</ele>
        <time>2019-09-23T09:09:27.000Z</time>
      </trkpt>
      <trkpt lat="48.66875" lon="5.66472">
        <ele>336.783</ele>
        <time>2019-09-23T09:09:57.000Z</time>
      </trkpt>
      <trkpt lat="48.66713" lon="5.66779">
        <ele>325.328</ele>
        <time>2019-09-23T09:10:27.000Z</time>
      </trkpt>
      <trkpt lat="48.66679" lon="5.67208">
        <ele>312.537</ele>
        <time>2019-09-23T09:10:57.000Z</time>
      </trkpt>
      <trkpt lat="48.66742" lon="5.67776">
        <ele>286.336</ele>
        <time>2019-09-23T09:11:30.000Z</time>
      </trkpt>
      <trkpt lat="48.66668" lon="5.68188">
        <ele>277.927</ele>
        <time>2019-09-23T09:12:00.000Z</time>
      </trkpt>
      <trkpt lat="48.66498" lon="5.68398">
        <ele>271.976</ele>
        <time>2019-09-23T09:12:30.000Z</time>
      </trkpt>
      <trkpt lat="48.66271" lon="5.68499">
        <ele>262.84</ele>
        <time>2019-09-23T09:13:00.000Z</time>
      </trkpt>
      <trkpt lat="48.66019" lon="5.68558">
        <ele>251.562</ele>
        <time>2019-09-23T09:13:30.000Z</time>
      </trkpt>
      <trkpt lat="48.65892" lon="5.6866">
        <ele>246.524</ele>
        <time>2019-09-23T09:14:24.000Z</time>
      </trkpt>
      <trkpt lat="48.65869" lon="5.68615">
        <ele>244.651</ele>
        <time>2019-09-23T09:14:57.000Z</time>
      </trkpt>
      <trkpt lat="48.65799" lon="5.68512">
        <ele>243.82</ele>
        <time>2019-09-23T09:16:06.000Z</time>
      </trkpt>
      <trkpt lat="48.65675" lon="5.68453">
        <ele>243.454</ele>
        <time>2019-09-23T09:16:36.000Z</time>
      </trkpt>
      <trkpt lat="48.65549" lon="5.68404">
        <ele>243.642</ele>
        <time>2019-09-23T09:17:06.000Z</time>
      </trkpt>
      <trkpt lat="48.65422" lon="5.68354">
        <ele>244.627</ele>
        <time>2019-09-23T09:17:36.000Z</time>
      </trkpt>
      <trkpt lat="48.65291" lon="5.68301">
        <ele>244.439</ele>
        <time>2019-09-23T09:18:06.000Z</time>
      </trkpt>
      <trkpt lat="48.65161" lon="5.68251">
        <ele>243.567</ele>
        <time>2019-09-23T09:18:36.000Z</time>
      </trkpt>
      <trkpt lat="48.65039" lon="5.68199">
        <ele>243.962</ele>
        <time>2019-09-23T09:19:06.000Z</time>
      </trkpt>
      <trkpt lat="48.6493" lon="5.68203">
        <ele>245.543</ele>
        <time>2019-09-23T09:19:36.000Z</time>
      </trkpt>
      <trkpt lat="48.6491" lon="5.68388">
        <ele>245.845</ele>
        <time>2019-09-23T09:20:06.000Z</time>
      </trkpt>
      <trkpt lat="48.64898" lon="5.68551">
        <ele>247.998</ele>
        <time>2019-09-23T09:20:36.000Z</time>
      </trkpt>
      <trkpt lat="48.64894" lon="5.68668">
        <ele>249.238</ele>
        <time>2019-09-23T09:21:06.000Z</time>
      </trkpt>
      <trkpt lat="48.64889" lon="5.68765">
        <ele>258.372</ele>
        <time>2019-09-23T09:21:36.000Z</time>
      </trkpt>
      <trkpt lat="48.64889" lon="5.6887">
        <ele>262.279</ele>
        <time>2019-09-23T09:22:06.000Z</time>
      </trkpt>
      <trkpt lat="48.64898" lon="5.68996">
        <ele>265.733</ele>
        <time>2019-09-23T09:22:36.000Z</time>
      </trkpt>
      <trkpt lat="48.64894" lon="5.69117">
        <ele>269.312</ele>
        <time>2019-09-23T09:23:06.000Z</time>
      </trkpt>
      <trkpt lat="48.6482" lon="5.69218">
        <ele>265.647</ele>
        <time>2019-09-23T09:23:36.000Z</time>
      </trkpt>
      <trkpt lat="48.64808" lon="5.69467">
        <ele>258.999</ele>
        <time>2019-09-23T09:24:06.000Z</time>
      </trkpt>
      <trkpt lat="48.64812" lon="5.69805">
        <ele>250.785</ele>
        <time>2019-09-23T09:24:36.000Z</time>
      </trkpt>
      <trkpt lat="48.64798" lon="5.70143">
        <ele>247.996</ele>
        <time>2019-09-23T09:25:06.000Z</time>
      </trkpt>
      <trkpt lat="48.6473" lon="5.70382">
        <ele>248.88</ele>
        <time>2019-09-23T09:25:36.000Z</time>
      </trkpt>
      <trkpt lat="48.64626" lon="5.70532">
        <ele>248.613</ele>
        <time>2019-09-23T09:26:06.000Z</time>
      </trkpt>
      <trkpt lat="48.64518" lon="5.70669">
        <ele>246.896</ele>
        <time>2019-09-23T09:26:36.000Z</time>
      </trkpt>
      <trkpt lat="48.64387" lon="5.70662">
        <ele>244.991</ele>
        <time>2019-09-23T09:27:06.000Z</time>
      </trkpt>
      <trkpt lat="48.64262" lon="5.70548">
        <ele>244.868</ele>
        <time>2019-09-23T09:27:36.000Z</time>
      </trkpt>
      <trkpt lat="48.64139" lon="5.7047">
        <ele>247.636</ele>
        <time>2019-09-23T09:28:06.000Z</time>
      </trkpt>
      <trkpt lat="48.63999" lon="5.70535">
        <ele>255.372</ele>
        <time>2019-09-23T09:28:36.000Z</time>
      </trkpt>
      <trkpt lat="48.6386" lon="5.70535">
        <ele>257.25</ele>
        <time>2019-09-23T09:29:06.000Z</time>
      </trkpt>
      <trkpt lat="48.63732" lon="5.70475">
        <ele>260.764</ele>
        <time>2019-09-23T09:29:36.000Z</time>
      </trkpt>
      <trkpt lat="48.63606" lon="5.704">
        <ele>257.184</ele>
        <time>2019-09-23T09:30:06.000Z</time>
      </trkpt>
      <trkpt lat="48.63462" lon="5.70284">
        <ele>253.638</ele>
        <time>2019-09-23T09:30:36.000Z</time>
      </trkpt>
      <trkpt lat="48.63322" lon="5.70188">
        <ele>253.768</ele>
        <time>2019-09-23T09:31:06.000Z</time>
      </trkpt>
      <trkpt lat="48.63197" lon="5.70067">
        <ele>252.15</ele>
        <time>2019-09-23T09:31:36.000Z</time>
      </trkpt>
      <trkpt lat="48.63108" lon="5.69899">
        <ele>256.513</ele>
        <time>2019-09-23T09:32:06.000Z</time>
      </trkpt>
      <trkpt lat="48.63022" lon="5.69709">
        <ele>265.008</ele>
        <time>2019-09-23T09:32:36.000Z</time>
      </trkpt>
      <trkpt lat="48.62952" lon="5.69523">
        <ele>261.619</ele>
        <time>2019-09-23T09:33:06.000Z</time>
      </trkpt>
      <trkpt lat="48.62895" lon="5.69311">
        <ele>260.414</ele>
        <time>2019-09-23T09:33:36.000Z</time>
      </trkpt>
      <trkpt lat="48.62872" lon="5.69109">
        <ele>250.081</ele>
        <time>2019-09-23T09:34:06.000Z</time>
      </trkpt>
      <trkpt lat="48.62848" lon="5.68893">
        <ele>247.679</ele>
        <time>2019-09-23T09:34:36.000Z</time>
      </trkpt>
      <trkpt lat="48.62814" lon="5.68662">
        <ele>247.6</ele>
        <time>2019-09-23T09:35:06.000Z</time>
      </trkpt>
      <trkpt lat="48.62769" lon="5.68472">
        <ele>250.749</ele>
        <time>2019-09-23T09:35:36.000Z</time>
      </trkpt>
      <trkpt lat="48.62729" lon="5.68329">
        <ele>252.248</ele>
        <time>2019-09-23T09:36:06.000Z</time>
      </trkpt>
      <trkpt lat="48.62658" lon="5.68157">
        <ele>247.617</ele>
        <time>2019-09-23T09:36:36.000Z</time>
      </trkpt>
      <trkpt lat="48.62537" lon="5.68029">
        <ele>248.662</ele>
        <time>2019-09-23T09:37:06.000Z</time>
      </trkpt>
      <trkpt lat="48.62415" lon="5.6792">
        <ele>249.462</ele>
        <time>2019-09-23T09:37:36.000Z</time>
      </trkpt>
      <trkpt lat="48.62297" lon="5.6781">
        <ele>252.971</ele>
        <time>2019-09-23T09:38:06.000Z</time>
      </trkpt>
      <trkpt lat="48.62168" lon="5.67705">
        <ele>250.296</ele>
        <time>2019-09-23T09:38:36.000Z</time>
      </trkpt>
      <trkpt lat="48.62045" lon="5.67599">
        <ele>250.331</ele>
        <time>2019-09-23T09:39:06.000Z</time>
      </trkpt>
      <trkpt lat="48.61923" lon="5.67492">
        <ele>251.512</ele>
        <time>2019-09-23T09:39:36.000Z</time>
      </trkpt>
      <trkpt lat="48.61789" lon="5.67374">
        <ele>249.141</ele>
        <time>2019-09-23T09:40:06.000Z</time>
      </trkpt>
      <trkpt lat="48.61676" lon="5.67277">
        <ele>252.897</ele>
        <time>2019-09-23T09:40:36.000Z</time>
      </trkpt>
      <trkpt lat="48.61565" lon="5.67181">
        <ele>253.101</ele>
        <time>2019-09-23T09:41:06.000Z</time>
      </trkpt>
      <trkpt lat="48.6145" lon="5.67081">
        <ele>257.04</ele>
        <time>2019-09-23T09:41:36.000Z</time>
      </trkpt>
      <trkpt lat="48.6133" lon="5.66979">
        <ele>250.039</ele>
        <time>2019-09-23T09:42:06.000Z</time>
      </trkpt>
      <trkpt lat="48.61214" lon="5.66878">
        <ele>252.106</ele>
        <time>2019-09-23T09:42:36.000Z</time>
      </trkpt>
      <trkpt lat="48.61094" lon="5.66774">
        <ele>247.637</ele>
        <time>2019-09-23T09:43:06.000Z</time>
      </trkpt>
      <trkpt lat="48.60973" lon="5.66701">
        <ele>247.286</ele>
        <time>2019-09-23T09:43:36.000Z</time>
      </trkpt>
      <trkpt lat="48.60886" lon="5.66625">
        <ele>250.78</ele>
        <time>2019-09-23T09:44:06.000Z</time>
      </trkpt>
      <trkpt lat="48.60732" lon="5.66657">
        <ele>249.855</ele>
        <time>2019-09-23T09:44:36.000Z</time>
      </trkpt>
      <trkpt lat="48.60588" lon="5.66715">
        <ele>249.862</ele>
        <time>2019-09-23T09:45:06.000Z</time>
      </trkpt>
      <trkpt lat="48.60522" lon="5.66785">
        <ele>251.069</ele>
        <time>2019-09-23T09:45:36.000Z</time>
      </trkpt>
      <trkpt lat="48.6048" lon="5.66818">
        <ele>251.499</ele>
        <time>2019-09-23T10:09:54.000Z</time>
      </trkpt>
      <trkpt lat="48.60409" lon="5.66881">
        <ele>251.121</ele>
        <time>2019-09-23T10:10:24.000Z</time>
      </trkpt>
      <trkpt lat="48.60336" lon="5.6694">
        <ele>248.966</ele>
        <time>2019-09-23T10:10:54.000Z</time>
      </trkpt>
      <trkpt lat="48.60272" lon="5.66967">
        <ele>249.554</ele>
        <time>2019-09-23T10:11:24.000Z</time>
      </trkpt>
      <trkpt lat="48.60209" lon="5.66963">
        <ele>253.948</ele>
        <time>2019-09-23T10:11:54.000Z</time>
      </trkpt>
      <trkpt lat="48.60202" lon="5.67173">
        <ele>254.584</ele>
        <time>2019-09-23T10:12:27.000Z</time>
      </trkpt>
      <trkpt lat="48.60187" lon="5.67359">
        <ele>254.593</ele>
        <time>2019-09-23T10:12:57.000Z</time>
      </trkpt>
      <trkpt lat="48.60169" lon="5.67558">
        <ele>252.809</ele>
        <time>2019-09-23T10:13:27.000Z</time>
      </trkpt>
      <trkpt lat="48.60166" lon="5.67757">
        <ele>254.409</ele>
        <time>2019-09-23T10:13:57.000Z</time>
      </trkpt>
      <trkpt lat="48.60203" lon="5.67923">
        <ele>255.63</ele>
        <time>2019-09-23T10:14:27.000Z</time>
      </trkpt>
      <trkpt lat="48.60242" lon="5.68062">
        <ele>255.538</ele>
        <time>2019-09-23T10:14:57.000Z</time>
      </trkpt>
      <trkpt lat="48.60231" lon="5.68137">
        <ele>266.761</ele>
        <time>2019-09-23T10:15:27.000Z</time>
      </trkpt>
      <trkpt lat="48.60177" lon="5.68159">
        <ele>270.163</ele>
        <time>2019-09-23T10:15:57.000Z</time>
      </trkpt>
      <trkpt lat="48.60122" lon="5.68211">
        <ele>271.954</ele>
        <time>2019-09-23T10:16:27.000Z</time>
      </trkpt>
      <trkpt lat="48.60041" lon="5.68281">
        <ele>273.809</ele>
        <time>2019-09-23T10:16:57.000Z</time>
      </trkpt>
      <trkpt lat="48.59932" lon="5.68432">
        <ele>271.486</ele>
        <time>2019-09-23T10:17:27.000Z</time>
      </trkpt>
      <trkpt lat="48.59689" lon="5.68589">
        <ele>261.567</ele>
        <time>2019-09-23T10:17:57.000Z</time>
      </trkpt>
      <trkpt lat="48.59562" lon="5.687">
        <ele>257.464</ele>
        <time>2019-09-23T10:18:27.000Z</time>
      </trkpt>
      <trkpt lat="48.59483" lon="5.68743">
        <ele>261.332</ele>
        <time>2019-09-23T10:18:57.000Z</time>
      </trkpt>
      <trkpt lat="48.59402" lon="5.68785">
        <ele>265.197</ele>
        <time>2019-09-23T10:19:27.000Z</time>
      </trkpt>
      <trkpt lat="48.59323" lon="5.68834">
        <ele>271.169</ele>
        <time>2019-09-23T10:19:57.000Z</time>
      </trkpt>
      <trkpt lat="48.59253" lon="5.68899">
        <ele>270.518</ele>
        <time>2019-09-23T10:20:27.000Z</time>
      </trkpt>
      <trkpt lat="48.59196" lon="5.68966">
        <ele>275.66</ele>
        <time>2019-09-23T10:20:57.000Z</time>
      </trkpt>
      <trkpt lat="48.59142" lon="5.69026">
        <ele>280.421</ele>
        <time>2019-09-23T10:21:27.000Z</time>
      </trkpt>
      <trkpt lat="48.59074" lon="5.69082">
        <ele>280.624</ele>
        <time>2019-09-23T10:21:57.000Z</time>
      </trkpt>
      <trkpt lat="48.58919" lon="5.6915">
        <ele>274.81</ele>
        <time>2019-09-23T10:22:27.000Z</time>
      </trkpt>
      <trkpt lat="48.58799" lon="5.69168">
        <ele>277.129</ele>
        <time>2019-09-23T10:22:57.000Z</time>
      </trkpt>
      <trkpt lat="48.58673" lon="5.69186">
        <ele>277.578</ele>
        <time>2019-09-23T10:23:27.000Z</time>
      </trkpt>
      <trkpt lat="48.58559" lon="5.69203">
        <ele>274.548</ele>
        <time>2019-09-23T10:33:45.000Z</time>
      </trkpt>
      <trkpt lat="48.58491" lon="5.69213">
        <ele>274.433</ele>
        <time>2019-09-23T10:34:27.000Z</time>
      </trkpt>
      <trkpt lat="48.58392" lon="5.69209">
        <ele>276.07</ele>
        <time>2019-09-23T10:34:57.000Z</time>
      </trkpt>
      <trkpt lat="48.58257" lon="5.69189">
        <ele>273.307</ele>
        <time>2019-09-23T10:35:27.000Z</time>
      </trkpt>
      <trkpt lat="48.58107" lon="5.69166">
        <ele>270.839</ele>
        <time>2019-09-23T10:35:57.000Z</time>
      </trkpt>
      <trkpt lat="48.57943" lon="5.69142">
        <ele>269.031</ele>
        <time>2019-09-23T10:36:27.000Z</time>
      </trkpt>
      <trkpt lat="48.57791" lon="5.69118">
        <ele>271.859</ele>
        <time>2019-09-23T10:36:57.000Z</time>
      </trkpt>
      <trkpt lat="48.57679" lon="5.69101">
        <ele>275.178</ele>
        <time>2019-09-23T10:37:27.000Z</time>
      </trkpt>
      <trkpt lat="48.57561" lon="5.69077">
        <ele>274.102</ele>
        <time>2019-09-23T10:37:57.000Z</time>
      </trkpt>
      <trkpt lat="48.57361" lon="5.69027">
        <ele>261.805</ele>
        <time>2019-09-23T10:38:27.000Z</time>
      </trkpt>
      <trkpt lat="48.57208" lon="5.68987">
        <ele>261.133</ele>
        <time>2019-09-23T10:38:57.000Z</time>
      </trkpt>
      <trkpt lat="48.57062" lon="5.68951">
        <ele>261.109</ele>
        <time>2019-09-23T10:39:27.000Z</time>
      </trkpt>
      <trkpt lat="48.5692" lon="5.68914">
        <ele>264.479</ele>
        <time>2019-09-23T10:39:57.000Z</time>
      </trkpt>
      <trkpt lat="48.56785" lon="5.6888">
        <ele>263.789</ele>
        <time>2019-09-23T10:40:27.000Z</time>
      </trkpt>
      <trkpt lat="48.56647" lon="5.68843">
        <ele>262.955</ele>
        <time>2019-09-23T10:40:57.000Z</time>
      </trkpt>
      <trkpt lat="48.56524" lon="5.68812">
        <ele>263.317</ele>
        <time>2019-09-23T10:41:27.000Z</time>
      </trkpt>
      <trkpt lat="48.56413" lon="5.68782">
        <ele>267.082</ele>
        <time>2019-09-23T10:41:57.000Z</time>
      </trkpt>
      <trkpt lat="48.56312" lon="5.68754">
        <ele>267.778</ele>
        <time>2019-09-23T10:42:27.000Z</time>
      </trkpt>
      <trkpt lat="48.56218" lon="5.68726">
        <ele>270.156</ele>
        <time>2019-09-23T10:42:57.000Z</time>
      </trkpt>
      <trkpt lat="48.56111" lon="5.68689">
        <ele>267.494</ele>
        <time>2019-09-23T10:43:27.000Z</time>
      </trkpt>
      <trkpt lat="48.55991" lon="5.6865">
        <ele>267.981</ele>
        <time>2019-09-23T10:43:57.000Z</time>
      </trkpt>
      <trkpt lat="48.55804" lon="5.68646">
        <ele>260.39</ele>
        <time>2019-09-23T10:44:27.000Z</time>
      </trkpt>
      <trkpt lat="48.5577" lon="5.6866">
        <ele>261.469</ele>
        <time>2019-09-23T10:48:42.000Z</time>
      </trkpt>
      <trkpt lat="48.55661" lon="5.68693">
        <ele>262.617</ele>
        <time>2019-09-23T10:49:12.000Z</time>
      </trkpt>
      <trkpt lat="48.55549" lon="5.6873">
        <ele>261.477</ele>
        <time>2019-09-23T10:49:42.000Z</time>
      </trkpt>
      <trkpt lat="48.55456" lon="5.68761">
        <ele>266.368</ele>
        <time>2019-09-23T10:50:12.000Z</time>
      </trkpt>
      <trkpt lat="48.55369" lon="5.68775">
        <ele>267.333</ele>
        <time>2019-09-23T10:50:42.000Z</time>
      </trkpt>
      <trkpt lat="48.55278" lon="5.68787">
        <ele>269.226</ele>
        <time>2019-09-23T10:51:12.000Z</time>
      </trkpt>
      <trkpt lat="48.55188" lon="5.688">
        <ele>271.318</ele>
        <time>2019-09-23T10:51:42.000Z</time>
      </trkpt>
      <trkpt lat="48.55109" lon="5.68824">
        <ele>272.288</ele>
        <time>2019-09-23T10:52:12.000Z</time>
      </trkpt>
      <trkpt lat="48.55029" lon="5.6886">
        <ele>275.538</ele>
        <time>2019-09-23T10:52:42.000Z</time>
      </trkpt>
      <trkpt lat="48.54954" lon="5.68891">
        <ele>277.668</ele>
        <time>2019-09-23T10:53:12.000Z</time>
      </trkpt>
      <trkpt lat="48.54814" lon="5.68896">
        <ele>275.933</ele>
        <time>2019-09-23T10:53:42.000Z</time>
      </trkpt>
      <trkpt lat="48.54658" lon="5.69232">
        <ele>259.466</ele>
        <time>2019-09-23T10:54:12.000Z</time>
      </trkpt>
      <trkpt lat="48.54592" lon="5.69438">
        <ele>257.873</ele>
        <time>2019-09-23T10:54:42.000Z</time>
      </trkpt>
      <trkpt lat="48.54421" lon="5.69565">
        <ele>257.101</ele>
        <time>2019-09-23T10:55:12.000Z</time>
      </trkpt>
      <trkpt lat="48.54315" lon="5.69646">
        <ele>258.14</ele>
        <time>2019-09-23T10:55:42.000Z</time>
      </trkpt>
      <trkpt lat="48.54257" lon="5.69842">
        <ele>256.432</ele>
        <time>2019-09-23T10:56:12.000Z</time>
      </trkpt>
      <trkpt lat="48.54243" lon="5.70045">
        <ele>254.877</ele>
        <time>2019-09-23T10:56:42.000Z</time>
      </trkpt>
      <trkpt lat="48.54211" lon="5.70148">
        <ele>259.366</ele>
        <time>2019-09-23T10:57:12.000Z</time>
      </trkpt>
      <trkpt lat="48.54156" lon="5.702">
        <ele>263.518</ele>
        <time>2019-09-23T10:57:42.000Z</time>
      </trkpt>
      <trkpt lat="48.541" lon="5.70229">
        <ele>274.065</ele>
        <time>2019-09-23T10:58:12.000Z</time>
      </trkpt>
      <trkpt lat="48.5404" lon="5.7024">
        <ele>282.804</ele>
        <time>2019-09-23T10:58:42.000Z</time>
      </trkpt>
      <trkpt lat="48.53979" lon="5.70249">
        <ele>287.489</ele>
        <time>2019-09-23T10:59:12.000Z</time>
      </trkpt>
      <trkpt lat="48.53915" lon="5.70263">
        <ele>288.811</ele>
        <time>2019-09-23T10:59:42.000Z</time>
      </trkpt>
      <trkpt lat="48.53877" lon="5.70332">
        <ele>285.604</ele>
        <time>2019-09-23T11:00:12.000Z</time>
      </trkpt>
      <trkpt lat="48.53937" lon="5.7037">
        <ele>289.508</ele>
        <time>2019-09-23T11:00:42.000Z</time>
      </trkpt>
      <trkpt lat="48.54019" lon="5.70435">
        <ele>289.83</ele>
        <time>2019-09-23T11:01:12.000Z</time>
      </trkpt>
      <trkpt lat="48.54184" lon="5.70692">
        <ele>280.565</ele>
        <time>2019-09-23T11:01:45.000Z</time>
      </trkpt>
      <trkpt lat="48.54291" lon="5.71097">
        <ele>271.29</ele>
        <time>2019-09-23T11:02:15.000Z</time>
      </trkpt>
      <trkpt lat="48.543" lon="5.71372">
        <ele>267.237</ele>
        <time>2019-09-23T11:02:45.000Z</time>
      </trkpt>
      <trkpt lat="48.54279" lon="5.71564">
        <ele>267.96</ele>
        <time>2019-09-23T11:03:15.000Z</time>
      </trkpt>
      <trkpt lat="48.54194" lon="5.71797">
        <ele>265.424</ele>
        <time>2019-09-23T11:03:45.000Z</time>
      </trkpt>
      <trkpt lat="48.54059" lon="5.71976">
        <ele>263.61</ele>
        <time>2019-09-23T11:04:15.000Z</time>
      </trkpt>
      <trkpt lat="48.5395" lon="5.72076">
        <ele>262.551</ele>
        <time>2019-09-23T11:04:45.000Z</time>
      </trkpt>
      <trkpt lat="48.53831" lon="5.72204">
        <ele>257.732</ele>
        <time>2019-09-23T11:05:15.000Z</time>
      </trkpt>
      <trkpt lat="48.53718" lon="5.72324">
        <ele>257.386</ele>
        <time>2019-09-23T11:05:45.000Z</time>
      </trkpt>
      <trkpt lat="48.53611" lon="5.72439">
        <ele>258.888</ele>
        <time>2019-09-23T11:06:15.000Z</time>
      </trkpt>
      <trkpt lat="48.53503" lon="5.72549">
        <ele>258.792</ele>
        <time>2019-09-23T11:06:45.000Z</time>
      </trkpt>
      <trkpt lat="48.53404" lon="5.72682">
        <ele>258.601</ele>
        <time>2019-09-23T11:07:15.000Z</time>
      </trkpt>
      <trkpt lat="48.53329" lon="5.72868">
        <ele>258.383</ele>
        <time>2019-09-23T11:07:45.000Z</time>
      </trkpt>
      <trkpt lat="48.53281" lon="5.73046">
        <ele>261.048</ele>
        <time>2019-09-23T11:08:15.000Z</time>
      </trkpt>
      <trkpt lat="48.53279" lon="5.73239">
        <ele>265.59</ele>
        <time>2019-09-23T11:08:45.000Z</time>
      </trkpt>
      <trkpt lat="48.53281" lon="5.73489">
        <ele>262.983</ele>
        <time>2019-09-23T11:09:15.000Z</time>
      </trkpt>
      <trkpt lat="48.53253" lon="5.73718">
        <ele>261.703</ele>
        <time>2019-09-23T11:09:45.000Z</time>
      </trkpt>
      <trkpt lat="48.5321" lon="5.73945">
        <ele>256.322</ele>
        <time>2019-09-23T11:10:15.000Z</time>
      </trkpt>
      <trkpt lat="48.53107" lon="5.74127">
        <ele>258.611</ele>
        <time>2019-09-23T11:10:45.000Z</time>
      </trkpt>
      <trkpt lat="48.53001" lon="5.7423">
        <ele>264.208</ele>
        <time>2019-09-23T11:11:15.000Z</time>
      </trkpt>
      <trkpt lat="48.52933" lon="5.74295">
        <ele>270.269</ele>
        <time>2019-09-23T11:11:45.000Z</time>
      </trkpt>
      <trkpt lat="48.52873" lon="5.74359">
        <ele>272.175</ele>
        <time>2019-09-23T11:12:15.000Z</time>
      </trkpt>
      <trkpt lat="48.52788" lon="5.74357">
        <ele>270.909</ele>
        <time>2019-09-23T11:12:45.000Z</time>
      </trkpt>
      <trkpt lat="48.52629" lon="5.74292">
        <ele>266.321</ele>
        <time>2019-09-23T11:13:15.000Z</time>
      </trkpt>
      <trkpt lat="48.52503" lon="5.74224">
        <ele>264.364</ele>
        <time>2019-09-23T11:13:45.000Z</time>
      </trkpt>
      <trkpt lat="48.52402" lon="5.74141">
        <ele>266.088</ele>
        <time>2019-09-23T11:14:15.000Z</time>
      </trkpt>
      <trkpt lat="48.52304" lon="5.74007">
        <ele>267.647</ele>
        <time>2019-09-23T11:14:45.000Z</time>
      </trkpt>
      <trkpt lat="48.52235" lon="5.73788">
        <ele>263.872</ele>
        <time>2019-09-23T11:15:15.000Z</time>
      </trkpt>
      <trkpt lat="48.52187" lon="5.73576">
        <ele>262.154</ele>
        <time>2019-09-23T11:15:45.000Z</time>
      </trkpt>
      <trkpt lat="48.52136" lon="5.73379">
        <ele>262.37</ele>
        <time>2019-09-23T11:16:15.000Z</time>
      </trkpt>
      <trkpt lat="48.52084" lon="5.73204">
        <ele>266.864</ele>
        <time>2019-09-23T11:16:45.000Z</time>
      </trkpt>
      <trkpt lat="48.5203" lon="5.73032">
        <ele>267.312</ele>
        <time>2019-09-23T11:17:15.000Z</time>
      </trkpt>
      <trkpt lat="48.51994" lon="5.72847">
        <ele>269.051</ele>
        <time>2019-09-23T11:17:45.000Z</time>
      </trkpt>
      <trkpt lat="48.51949" lon="5.72675">
        <ele>280.514</ele>
        <time>2019-09-23T11:18:15.000Z</time>
      </trkpt>
      <trkpt lat="48.51887" lon="5.72552">
        <ele>278.799</ele>
        <time>2019-09-23T11:18:45.000Z</time>
      </trkpt>
      <trkpt lat="48.51828" lon="5.72434">
        <ele>274.729</ele>
        <time>2019-09-23T11:19:15.000Z</time>
      </trkpt>
      <trkpt lat="48.51743" lon="5.72291">
        <ele>270.277</ele>
        <time>2019-09-23T11:19:45.000Z</time>
      </trkpt>
      <trkpt lat="48.51632" lon="5.72206">
        <ele>273.054</ele>
        <time>2019-09-23T11:20:15.000Z</time>
      </trkpt>
      <trkpt lat="48.51541" lon="5.72163">
        <ele>277.363</ele>
        <time>2019-09-23T11:20:45.000Z</time>
      </trkpt>
      <trkpt lat="48.51446" lon="5.72113">
        <ele>278.312</ele>
        <time>2019-09-23T11:21:15.000Z</time>
      </trkpt>
      <trkpt lat="48.51279" lon="5.7202">
        <ele>277.63</ele>
        <time>2019-09-23T11:21:45.000Z</time>
      </trkpt>
      <trkpt lat="48.51114" lon="5.71989">
        <ele>271.311</ele>
        <time>2019-09-23T11:22:15.000Z</time>
      </trkpt>
      <trkpt lat="48.50971" lon="5.71969">
        <ele>267.917</ele>
        <time>2019-09-23T11:22:45.000Z</time>
      </trkpt>
      <trkpt lat="48.50836" lon="5.71949">
        <ele>270.268</ele>
        <time>2019-09-23T11:23:15.000Z</time>
      </trkpt>
      <trkpt lat="48.50692" lon="5.71931">
        <ele>272.87</ele>
        <time>2019-09-23T11:23:45.000Z</time>
      </trkpt>
      <trkpt lat="48.50548" lon="5.71907">
        <ele>271.092</ele>
        <time>2019-09-23T11:24:15.000Z</time>
      </trkpt>
      <trkpt lat="48.50387" lon="5.7188">
        <ele>268.563</ele>
        <time>2019-09-23T11:24:45.000Z</time>
      </trkpt>
      <trkpt lat="48.50245" lon="5.71857">
        <ele>270.423</ele>
        <time>2019-09-23T11:25:15.000Z</time>
      </trkpt>
      <trkpt lat="48.50097" lon="5.7174">
        <ele>271.656</ele>
        <time>2019-09-23T11:25:45.000Z</time>
      </trkpt>
      <trkpt lat="48.49936" lon="5.71601">
        <ele>276.291</ele>
        <time>2019-09-23T11:26:15.000Z</time>
      </trkpt>
      <trkpt lat="48.49812" lon="5.71546">
        <ele>276.313</ele>
        <time>2019-09-23T11:26:45.000Z</time>
      </trkpt>
      <trkpt lat="48.49669" lon="5.71574">
        <ele>268.343</ele>
        <time>2019-09-23T11:27:15.000Z</time>
      </trkpt>
      <trkpt lat="48.49536" lon="5.71655">
        <ele>267.76</ele>
        <time>2019-09-23T11:27:45.000Z</time>
      </trkpt>
      <trkpt lat="48.49426" lon="5.71746">
        <ele>260.632</ele>
        <time>2019-09-23T11:28:15.000Z</time>
      </trkpt>
      <trkpt lat="48.4929" lon="5.71743">
        <ele>262.011</ele>
        <time>2019-09-23T11:28:45.000Z</time>
      </trkpt>
      <trkpt lat="48.49154" lon="5.71718">
        <ele>261.975</ele>
        <time>2019-09-23T11:29:15.000Z</time>
      </trkpt>
      <trkpt lat="48.49031" lon="5.7165">
        <ele>262.126</ele>
        <time>2019-09-23T11:29:45.000Z</time>
      </trkpt>
      <trkpt lat="48.48913" lon="5.71585">
        <ele>264.575</ele>
        <time>2019-09-23T11:30:15.000Z</time>
      </trkpt>
      <trkpt lat="48.48783" lon="5.7153">
        <ele>262.651</ele>
        <time>2019-09-23T11:30:45.000Z</time>
      </trkpt>
      <trkpt lat="48.48648" lon="5.71508">
        <ele>260.704</ele>
        <time>2019-09-23T11:31:15.000Z</time>
      </trkpt>
      <trkpt lat="48.48534" lon="5.71473">
        <ele>262.226</ele>
        <time>2019-09-23T11:31:45.000Z</time>
      </trkpt>
      <trkpt lat="48.48444" lon="5.71377">
        <ele>264.431</ele>
        <time>2019-09-23T11:32:15.000Z</time>
      </trkpt>
      <trkpt lat="48.48355" lon="5.71302">
        <ele>267.313</ele>
        <time>2019-09-23T11:32:45.000Z</time>
      </trkpt>
      <trkpt lat="48.48273" lon="5.71239">
        <ele>270.569</ele>
        <time>2019-09-23T11:33:15.000Z</time>
      </trkpt>
      <trkpt lat="48.4819" lon="5.71185">
        <ele>271.295</ele>
        <time>2019-09-23T11:33:45.000Z</time>
      </trkpt>
      <trkpt lat="48.48087" lon="5.7117">
        <ele>271.936</ele>
        <time>2019-09-23T11:34:15.000Z</time>
      </trkpt>
      <trkpt lat="48.48036" lon="5.7129">
        <ele>274.344</ele>
        <time>2019-09-23T11:34:45.000Z</time>
      </trkpt>
      <trkpt lat="48.47992" lon="5.71404">
        <ele>276.313</ele>
        <time>2019-09-23T11:35:15.000Z</time>
      </trkpt>
      <trkpt lat="48.47954" lon="5.71519">
        <ele>278.94</ele>
        <time>2019-09-23T11:35:45.000Z</time>
      </trkpt>
      <trkpt lat="48.4791" lon="5.71617">
        <ele>282.428</ele>
        <time>2019-09-23T11:36:15.000Z</time>
      </trkpt>
      <trkpt lat="48.47842" lon="5.71661">
        <ele>285.457</ele>
        <time>2019-09-23T11:36:45.000Z</time>
      </trkpt>
      <trkpt lat="48.47772" lon="5.71647">
        <ele>289.41</ele>
        <time>2019-09-23T11:37:18.000Z</time>
      </trkpt>
      <trkpt lat="48.47717" lon="5.71591">
        <ele>292.62</ele>
        <time>2019-09-23T11:37:48.000Z</time>
      </trkpt>
      <trkpt lat="48.47685" lon="5.71514">
        <ele>296.614</ele>
        <time>2019-09-23T11:38:18.000Z</time>
      </trkpt>
      <trkpt lat="48.47652" lon="5.71432">
        <ele>302.128</ele>
        <time>2019-09-23T11:38:48.000Z</time>
      </trkpt>
      <trkpt lat="48.47593" lon="5.71387">
        <ele>304.662</ele>
        <time>2019-09-23T11:39:18.000Z</time>
      </trkpt>
      <trkpt lat="48.47532" lon="5.71382">
        <ele>308.084</ele>
        <time>2019-09-23T11:39:48.000Z</time>
      </trkpt>
      <trkpt lat="48.47473" lon="5.71386">
        <ele>312.286</ele>
        <time>2019-09-23T11:40:18.000Z</time>
      </trkpt>
      <trkpt lat="48.47413" lon="5.71415">
        <ele>318.259</ele>
        <time>2019-09-23T11:40:48.000Z</time>
      </trkpt>
      <trkpt lat="48.47329" lon="5.71407">
        <ele>320.382</ele>
        <time>2019-09-23T11:41:18.000Z</time>
      </trkpt>
      <trkpt lat="48.47237" lon="5.71374">
        <ele>317.674</ele>
        <time>2019-09-23T11:41:48.000Z</time>
      </trkpt>
      <trkpt lat="48.47144" lon="5.71335">
        <ele>318.053</ele>
        <time>2019-09-23T11:42:18.000Z</time>
      </trkpt>
      <trkpt lat="48.47044" lon="5.71283">
        <ele>319.708</ele>
        <time>2019-09-23T11:42:48.000Z</time>
      </trkpt>
      <trkpt lat="48.46942" lon="5.71218">
        <ele>317.918</ele>
        <time>2019-09-23T11:43:18.000Z</time>
      </trkpt>
      <trkpt lat="48.46846" lon="5.71161">
        <ele>319.146</ele>
        <time>2019-09-23T11:43:48.000Z</time>
      </trkpt>
      <trkpt lat="48.46755" lon="5.71108">
        <ele>321.321</ele>
        <time>2019-09-23T11:44:18.000Z</time>
      </trkpt>
      <trkpt lat="48.4668" lon="5.71063">
        <ele>318.695</ele>
        <time>2019-09-23T11:46:39.000Z</time>
      </trkpt>
      <trkpt lat="48.46535" lon="5.70995">
        <ele>314.417</ele>
        <time>2019-09-23T11:47:09.000Z</time>
      </trkpt>
      <trkpt lat="48.46349" lon="5.70944">
        <ele>305.474</ele>
        <time>2019-09-23T11:47:39.000Z</time>
      </trkpt>
      <trkpt lat="48.46202" lon="5.70945">
        <ele>302.767</ele>
        <time>2019-09-23T11:48:09.000Z</time>
      </trkpt>
      <trkpt lat="48.46065" lon="5.7089">
        <ele>300.943</ele>
        <time>2019-09-23T11:48:39.000Z</time>
      </trkpt>
      <trkpt lat="48.45923" lon="5.70738">
        <ele>296.436</ele>
        <time>2019-09-23T11:49:09.000Z</time>
      </trkpt>
      <trkpt lat="48.45803" lon="5.70612">
        <ele>295.854</ele>
        <time>2019-09-23T11:49:39.000Z</time>
      </trkpt>
      <trkpt lat="48.45733" lon="5.70545">
        <ele>296.767</ele>
        <time>2019-09-23T11:50:09.000Z</time>
      </trkpt>
      <trkpt lat="48.45673" lon="5.70483">
        <ele>301.551</ele>
        <time>2019-09-23T11:50:39.000Z</time>
      </trkpt>
      <trkpt lat="48.45611" lon="5.7042">
        <ele>305.811</ele>
        <time>2019-09-23T11:51:09.000Z</time>
      </trkpt>
      <trkpt lat="48.45546" lon="5.70356">
        <ele>304.36</ele>
        <time>2019-09-23T11:51:39.000Z</time>
      </trkpt>
      <trkpt lat="48.45464" lon="5.70276">
        <ele>304.257</ele>
        <time>2019-09-23T11:52:09.000Z</time>
      </trkpt>
      <trkpt lat="48.45412" lon="5.70099">
        <ele>297.321</ele>
        <time>2019-09-23T11:52:39.000Z</time>
      </trkpt>
      <trkpt lat="48.45266" lon="5.69891">
        <ele>277.047</ele>
        <time>2019-09-23T11:53:09.000Z</time>
      </trkpt>
      <trkpt lat="48.45096" lon="5.69732">
        <ele>271.506</ele>
        <time>2019-09-23T11:53:39.000Z</time>
      </trkpt>
      <trkpt lat="48.45194" lon="5.69554">
        <ele>269.483</ele>
        <time>2019-09-23T11:54:09.000Z</time>
      </trkpt>
      <trkpt lat="48.45242" lon="5.69387">
        <ele>266.996</ele>
        <time>2019-09-23T11:54:39.000Z</time>
      </trkpt>
      <trkpt lat="48.45266" lon="5.69158">
        <ele>267.162</ele>
        <time>2019-09-23T11:55:09.000Z</time>
      </trkpt>
      <trkpt lat="48.45224" lon="5.68956">
        <ele>266.678</ele>
        <time>2019-09-23T11:55:39.000Z</time>
      </trkpt>
      <trkpt lat="48.45177" lon="5.68789">
        <ele>267.506</ele>
        <time>2019-09-23T11:56:09.000Z</time>
      </trkpt>
      <trkpt lat="48.45147" lon="5.6862">
        <ele>267.707</ele>
        <time>2019-09-23T11:56:39.000Z</time>
      </trkpt>
      <trkpt lat="48.45103" lon="5.68478">
        <ele>270.142</ele>
        <time>2019-09-23T11:57:09.000Z</time>
      </trkpt>
      <trkpt lat="48.4503" lon="5.68345">
        <ele>273.84</ele>
        <time>2019-09-23T11:57:39.000Z</time>
      </trkpt>
      <trkpt lat="48.45002" lon="5.68163">
        <ele>269.852</ele>
        <time>2019-09-23T11:58:09.000Z</time>
      </trkpt>
      <trkpt lat="48.45007" lon="5.67988">
        <ele>268.298</ele>
        <time>2019-09-23T11:58:39.000Z</time>
      </trkpt>
      <trkpt lat="48.44936" lon="5.67898">
        <ele>269.547</ele>
        <time>2019-09-23T11:59:09.000Z</time>
      </trkpt>
      <trkpt lat="48.44827" lon="5.67815">
        <ele>266.799</ele>
        <time>2019-09-23T11:59:39.000Z</time>
      </trkpt>
      <trkpt lat="48.44777" lon="5.67698">
        <ele>269.837</ele>
        <time>2019-09-23T12:00:09.000Z</time>
      </trkpt>
      <trkpt lat="48.44768" lon="5.67622">
        <ele>275.209</ele>
        <time>2019-09-23T12:00:51.000Z</time>
      </trkpt>
      <trkpt lat="48.44772" lon="5.67617">
        <ele>274.236</ele>
        <time>2019-09-23T12:12:54.000Z</time>
      </trkpt>
      <trkpt lat="48.44772" lon="5.67617">
        <ele>274.471</ele>
        <time>2019-09-23T12:19:00.000Z</time>
      </trkpt>
      <trkpt lat="48.44771" lon="5.6762">
        <ele>272.381</ele>
        <time>2019-09-23T12:23:00.000Z</time>
      </trkpt>
      <trkpt lat="48.44769" lon="5.67617">
        <ele>268.599</ele>
        <time>2019-09-23T12:25:30.000Z</time>
      </trkpt>
      <trkpt lat="48.44771" lon="5.67616">
        <ele>269.919</ele>
        <time>2019-09-23T12:29:14.000Z</time>
      </trkpt>
      <trkpt lat="48.44772" lon="5.67615">
        <ele>270.548</ele>
        <time>2019-09-23T12:31:38.001Z</time>
      </trkpt>
      <trkpt lat="48.44723" lon="5.67625">
        <ele>265.999</ele>
        <time>2019-09-23T12:32:56.001Z</time>
      </trkpt>
      <trkpt lat="48.44606" lon="5.67601">
        <ele>267.555</ele>
        <time>2019-09-23T12:33:26.001Z</time>
      </trkpt>
      <trkpt lat="48.44498" lon="5.67577">
        <ele>266.464</ele>
        <time>2019-09-23T12:33:56.001Z</time>
      </trkpt>
      <trkpt lat="48.44377" lon="5.6755">
        <ele>271.227</ele>
        <time>2019-09-23T12:34:26.001Z</time>
      </trkpt>
      <trkpt lat="48.44305" lon="5.6749">
        <ele>272.681</ele>
        <time>2019-09-23T12:34:56.001Z</time>
      </trkpt>
      <trkpt lat="48.44238" lon="5.67391">
        <ele>273.124</ele>
        <time>2019-09-23T12:35:26.001Z</time>
      </trkpt>
      <trkpt lat="48.44138" lon="5.67331">
        <ele>268.379</ele>
        <time>2019-09-23T12:35:56.001Z</time>
      </trkpt>
      <trkpt lat="48.44124" lon="5.67287">
        <ele>269.043</ele>
        <time>2019-09-23T12:37:17.001Z</time>
      </trkpt>
      <trkpt lat="48.44099" lon="5.67359">
        <ele>269.822</ele>
        <time>2019-09-23T12:37:53.001Z</time>
      </trkpt>
      <trkpt lat="48.43995" lon="5.6732">
        <ele>269.849</ele>
        <time>2019-09-23T12:38:23.001Z</time>
      </trkpt>
      <trkpt lat="48.43911" lon="5.67319">
        <ele>268.395</ele>
        <time>2019-09-23T12:38:53.001Z</time>
      </trkpt>
      <trkpt lat="48.43797" lon="5.67313">
        <ele>272.164</ele>
        <time>2019-09-23T12:39:23.001Z</time>
      </trkpt>
      <trkpt lat="48.43748" lon="5.6726">
        <ele>277.859</ele>
        <time>2019-09-23T12:39:53.001Z</time>
      </trkpt>
      <trkpt lat="48.43695" lon="5.67198">
        <ele>287.599</ele>
        <time>2019-09-23T12:40:29.001Z</time>
      </trkpt>
      <trkpt lat="48.43636" lon="5.67167">
        <ele>294.405</ele>
        <time>2019-09-23T12:41:05.001Z</time>
      </trkpt>
      <trkpt lat="48.43579" lon="5.67144">
        <ele>296.297</ele>
        <time>2019-09-23T12:41:35.001Z</time>
      </trkpt>
      <trkpt lat="48.43517" lon="5.67135">
        <ele>295.379</ele>
        <time>2019-09-23T12:42:05.001Z</time>
      </trkpt>
      <trkpt lat="48.43458" lon="5.67117">
        <ele>296.024</ele>
        <time>2019-09-23T12:42:38.001Z</time>
      </trkpt>
      <trkpt lat="48.43377" lon="5.67114">
        <ele>297.255</ele>
        <time>2019-09-23T12:43:08.001Z</time>
      </trkpt>
      <trkpt lat="48.43298" lon="5.6712">
        <ele>300.009</ele>
        <time>2019-09-23T12:43:38.001Z</time>
      </trkpt>
      <trkpt lat="48.43221" lon="5.67113">
        <ele>305.723</ele>
        <time>2019-09-23T12:44:08.001Z</time>
      </trkpt>
      <trkpt lat="48.43138" lon="5.67104">
        <ele>306.688</ele>
        <time>2019-09-23T12:44:38.001Z</time>
      </trkpt>
      <trkpt lat="48.43045" lon="5.67086">
        <ele>308.976</ele>
        <time>2019-09-23T12:45:11.001Z</time>
      </trkpt>
      <trkpt lat="48.42961" lon="5.67058">
        <ele>310.607</ele>
        <time>2019-09-23T12:45:41.001Z</time>
      </trkpt>
      <trkpt lat="48.42889" lon="5.67035">
        <ele>315.444</ele>
        <time>2019-09-23T12:46:11.001Z</time>
      </trkpt>
      <trkpt lat="48.42817" lon="5.67071">
        <ele>318.166</ele>
        <time>2019-09-23T12:46:41.001Z</time>
      </trkpt>
      <trkpt lat="48.42758" lon="5.67051">
        <ele>320.874</ele>
        <time>2019-09-23T12:48:38.001Z</time>
      </trkpt>
      <trkpt lat="48.42671" lon="5.66995">
        <ele>323.4</ele>
        <time>2019-09-23T12:50:38.001Z</time>
      </trkpt>
      <trkpt lat="48.42529" lon="5.66954">
        <ele>320.43</ele>
        <time>2019-09-23T12:51:08.001Z</time>
      </trkpt>
      <trkpt lat="48.42323" lon="5.66906">
        <ele>313.512</ele>
        <time>2019-09-23T12:51:38.001Z</time>
      </trkpt>
      <trkpt lat="48.42043" lon="5.66852">
        <ele>308.707</ele>
        <time>2019-09-23T12:52:08.001Z</time>
      </trkpt>
      <trkpt lat="48.41687" lon="5.66785">
        <ele>280.207</ele>
        <time>2019-09-23T12:52:38.001Z</time>
      </trkpt>
      <trkpt lat="48.41486" lon="5.66799">
        <ele>271.558</ele>
        <time>2019-09-23T12:53:08.001Z</time>
      </trkpt>
      <trkpt lat="48.41353" lon="5.66837">
        <ele>271.757</ele>
        <time>2019-09-23T12:53:38.001Z</time>
      </trkpt>
      <trkpt lat="48.41199" lon="5.66918">
        <ele>269.874</ele>
        <time>2019-09-23T12:54:08.001Z</time>
      </trkpt>
      <trkpt lat="48.41043" lon="5.66996">
        <ele>272.415</ele>
        <time>2019-09-23T12:54:38.001Z</time>
      </trkpt>
      <trkpt lat="48.40903" lon="5.67107">
        <ele>275.985</ele>
        <time>2019-09-23T12:55:08.001Z</time>
      </trkpt>
      <trkpt lat="48.40771" lon="5.67235">
        <ele>277.277</ele>
        <time>2019-09-23T12:55:38.001Z</time>
      </trkpt>
      <trkpt lat="48.40697" lon="5.67408">
        <ele>271.361</ele>
        <time>2019-09-23T12:56:08.001Z</time>
      </trkpt>
      <trkpt lat="48.40684" lon="5.67645">
        <ele>264.362</ele>
        <time>2019-09-23T12:56:38.001Z</time>
      </trkpt>
      <trkpt lat="48.4068" lon="5.67866">
        <ele>263.135</ele>
        <time>2019-09-23T12:57:08.001Z</time>
      </trkpt>
      <trkpt lat="48.4072" lon="5.68081">
        <ele>264.611</ele>
        <time>2019-09-23T12:57:38.001Z</time>
      </trkpt>
      <trkpt lat="48.40736" lon="5.68278">
        <ele>268.583</ele>
        <time>2019-09-23T12:58:08.001Z</time>
      </trkpt>
      <trkpt lat="48.40625" lon="5.68369">
        <ele>276.26</ele>
        <time>2019-09-23T12:58:38.001Z</time>
      </trkpt>
      <trkpt lat="48.40641" lon="5.68479">
        <ele>278.82</ele>
        <time>2019-09-23T12:59:08.001Z</time>
      </trkpt>
      <trkpt lat="48.40649" lon="5.68585">
        <ele>282.58</ele>
        <time>2019-09-23T12:59:38.001Z</time>
      </trkpt>
      <trkpt lat="48.40667" lon="5.68681">
        <ele>288.15</ele>
        <time>2019-09-23T13:00:08.001Z</time>
      </trkpt>
      <trkpt lat="48.40695" lon="5.68794">
        <ele>292.747</ele>
        <time>2019-09-23T13:00:38.001Z</time>
      </trkpt>
      <trkpt lat="48.40715" lon="5.68892">
        <ele>295.002</ele>
        <time>2019-09-23T13:01:20.001Z</time>
      </trkpt>
      <trkpt lat="48.40715" lon="5.68876">
        <ele>292.118</ele>
        <time>2019-09-23T13:03:53.001Z</time>
      </trkpt>
      <trkpt lat="48.40686" lon="5.68743">
        <ele>286.484</ele>
        <time>2019-09-23T13:07:56.001Z</time>
      </trkpt>
      <trkpt lat="48.40638" lon="5.68466">
        <ele>277.887</ele>
        <time>2019-09-23T13:08:26.001Z</time>
      </trkpt>
      <trkpt lat="48.40545" lon="5.68444">
        <ele>276.357</ele>
        <time>2019-09-23T13:08:56.001Z</time>
      </trkpt>
      <trkpt lat="48.4038" lon="5.68527">
        <ele>273.154</ele>
        <time>2019-09-23T13:09:26.001Z</time>
      </trkpt>
      <trkpt lat="48.40266" lon="5.68593">
        <ele>274.429</ele>
        <time>2019-09-23T13:09:56.001Z</time>
      </trkpt>
      <trkpt lat="48.40178" lon="5.68647">
        <ele>278.099</ele>
        <time>2019-09-23T13:10:26.001Z</time>
      </trkpt>
      <trkpt lat="48.40094" lon="5.68702">
        <ele>281.009</ele>
        <time>2019-09-23T13:10:56.001Z</time>
      </trkpt>
      <trkpt lat="48.40011" lon="5.68714">
        <ele>285.853</ele>
        <time>2019-09-23T13:11:26.001Z</time>
      </trkpt>
      <trkpt lat="48.39935" lon="5.68656">
        <ele>281.213</ele>
        <time>2019-09-23T13:11:56.001Z</time>
      </trkpt>
      <trkpt lat="48.39845" lon="5.68589">
        <ele>278.315</ele>
        <time>2019-09-23T13:12:26.001Z</time>
      </trkpt>
      <trkpt lat="48.39732" lon="5.68532">
        <ele>280.271</ele>
        <time>2019-09-23T13:12:56.001Z</time>
      </trkpt>
      <trkpt lat="48.39624" lon="5.68513">
        <ele>282.314</ele>
        <time>2019-09-23T13:13:26.001Z</time>
      </trkpt>
      <trkpt lat="48.39517" lon="5.68519">
        <ele>282.633</ele>
        <time>2019-09-23T13:13:56.001Z</time>
      </trkpt>
      <trkpt lat="48.39441" lon="5.68549">
        <ele>281.422</ele>
        <time>2019-09-23T13:14:26.001Z</time>
      </trkpt>
      <trkpt lat="48.39347" lon="5.68587">
        <ele>279.454</ele>
        <time>2019-09-23T13:14:56.001Z</time>
      </trkpt>
      <trkpt lat="48.39247" lon="5.68678">
        <ele>277.068</ele>
        <time>2019-09-23T13:15:26.001Z</time>
      </trkpt>
      <trkpt lat="48.39166" lon="5.68754">
        <ele>275.847</ele>
        <time>2019-09-23T13:15:56.001Z</time>
      </trkpt>
      <trkpt lat="48.39118" lon="5.68646">
        <ele>275.217</ele>
        <time>2019-09-23T13:16:26.001Z</time>
      </trkpt>
      <trkpt lat="48.39109" lon="5.68399">
        <ele>271.005</ele>
        <time>2019-09-23T13:16:56.001Z</time>
      </trkpt>
      <trkpt lat="48.39138" lon="5.68129">
        <ele>271.955</ele>
        <time>2019-09-23T13:17:26.001Z</time>
      </trkpt>
      <trkpt lat="48.39137" lon="5.679">
        <ele>271.931</ele>
        <time>2019-09-23T13:17:56.001Z</time>
      </trkpt>
      <trkpt lat="48.39139" lon="5.67691">
        <ele>272.167</ele>
        <time>2019-09-23T13:18:26.001Z</time>
      </trkpt>
      <trkpt lat="48.39086" lon="5.67662">
        <ele>273.145</ele>
        <time>2019-09-23T13:21:26.001Z</time>
      </trkpt>
      <trkpt lat="48.38996" lon="5.67755">
        <ele>274.788</ele>
        <time>2019-09-23T13:21:56.001Z</time>
      </trkpt>
      <trkpt lat="48.38918" lon="5.67733">
        <ele>274.798</ele>
        <time>2019-09-23T13:22:26.001Z</time>
      </trkpt>
      <trkpt lat="48.38852" lon="5.67708">
        <ele>275.623</ele>
        <time>2019-09-23T13:22:56.001Z</time>
      </trkpt>
      <trkpt lat="48.3878" lon="5.67682">
        <ele>281.012</ele>
        <time>2019-09-23T13:23:26.001Z</time>
      </trkpt>
      <trkpt lat="48.38706" lon="5.67655">
        <ele>280.889</ele>
        <time>2019-09-23T13:23:56.001Z</time>
      </trkpt>
      <trkpt lat="48.38602" lon="5.67625">
        <ele>283.034</ele>
        <time>2019-09-23T13:24:26.001Z</time>
      </trkpt>
      <trkpt lat="48.38485" lon="5.67602">
        <ele>286.209</ele>
        <time>2019-09-23T13:24:56.001Z</time>
      </trkpt>
      <trkpt lat="48.38365" lon="5.67596">
        <ele>284.007</ele>
        <time>2019-09-23T13:25:26.001Z</time>
      </trkpt>
      <trkpt lat="48.38244" lon="5.67652">
        <ele>285.496</ele>
        <time>2019-09-23T13:25:56.001Z</time>
      </trkpt>
      <trkpt lat="48.38138" lon="5.67643">
        <ele>287.816</ele>
        <time>2019-09-23T13:26:26.001Z</time>
      </trkpt>
      <trkpt lat="48.38054" lon="5.67618">
        <ele>289.375</ele>
        <time>2019-09-23T13:26:56.001Z</time>
      </trkpt>
      <trkpt lat="48.37981" lon="5.67603">
        <ele>292.112</ele>
        <time>2019-09-23T13:27:26.001Z</time>
      </trkpt>
      <trkpt lat="48.37906" lon="5.67605">
        <ele>295.809</ele>
        <time>2019-09-23T13:27:56.001Z</time>
      </trkpt>
      <trkpt lat="48.37822" lon="5.67622">
        <ele>300.348</ele>
        <time>2019-09-23T13:28:26.001Z</time>
      </trkpt>
      <trkpt lat="48.37701" lon="5.67656">
        <ele>300.639</ele>
        <time>2019-09-23T13:28:56.001Z</time>
      </trkpt>
      <trkpt lat="48.37528" lon="5.67721">
        <ele>294.39</ele>
        <time>2019-09-23T13:29:26.001Z</time>
      </trkpt>
      <trkpt lat="48.37311" lon="5.67842">
        <ele>285.437</ele>
        <time>2019-09-23T13:29:56.001Z</time>
      </trkpt>
      <trkpt lat="48.37096" lon="5.67964">
        <ele>279.54</ele>
        <time>2019-09-23T13:30:26.001Z</time>
      </trkpt>
      <trkpt lat="48.36951" lon="5.68093">
        <ele>278</ele>
        <time>2019-09-23T13:30:56.001Z</time>
      </trkpt>
      <trkpt lat="48.36887" lon="5.68302">
        <ele>274.58</ele>
        <time>2019-09-23T13:31:26.001Z</time>
      </trkpt>
      <trkpt lat="48.36803" lon="5.68567">
        <ele>275.237</ele>
        <time>2019-09-23T13:31:59.001Z</time>
      </trkpt>
      <trkpt lat="48.36739" lon="5.68747">
        <ele>273.535</ele>
        <time>2019-09-23T13:32:29.001Z</time>
      </trkpt>
      <trkpt lat="48.36675" lon="5.68898">
        <ele>275.654</ele>
        <time>2019-09-23T13:32:59.001Z</time>
      </trkpt>
      <trkpt lat="48.36537" lon="5.68947">
        <ele>275.049</ele>
        <time>2019-09-23T13:33:29.001Z</time>
      </trkpt>
      <trkpt lat="48.36395" lon="5.68956">
        <ele>278.958</ele>
        <time>2019-09-23T13:33:59.001Z</time>
      </trkpt>
      <trkpt lat="48.36257" lon="5.68938">
        <ele>285.559</ele>
        <time>2019-09-23T13:34:29.001Z</time>
      </trkpt>
      <trkpt lat="48.36177" lon="5.69071">
        <ele>281.048</ele>
        <time>2019-09-23T13:34:59.001Z</time>
      </trkpt>
      <trkpt lat="48.36113" lon="5.69183">
        <ele>280.502</ele>
        <time>2019-09-23T13:35:29.001Z</time>
      </trkpt>
      <trkpt lat="48.36073" lon="5.69339">
        <ele>284.2</ele>
        <time>2019-09-23T13:35:59.001Z</time>
      </trkpt>
      <trkpt lat="48.36004" lon="5.6937">
        <ele>279.833</ele>
        <time>2019-09-23T13:36:32.001Z</time>
      </trkpt>
      <trkpt lat="48.35917" lon="5.69278">
        <ele>280.96</ele>
        <time>2019-09-23T13:37:02.000Z</time>
      </trkpt>
      <trkpt lat="48.35887" lon="5.69148">
        <ele>282.402</ele>
        <time>2019-09-23T13:37:32.001Z</time>
      </trkpt>
      <trkpt lat="48.35768" lon="5.69136">
        <ele>281.779</ele>
        <time>2019-09-23T13:38:02.000Z</time>
      </trkpt>
      <trkpt lat="48.35721" lon="5.69213">
        <ele>283.345</ele>
        <time>2019-09-23T13:38:47.001Z</time>
      </trkpt>
      <trkpt lat="48.35678" lon="5.69327">
        <ele>287.171</ele>
        <time>2019-09-23T13:39:17.001Z</time>
      </trkpt>
      <trkpt lat="48.3558" lon="5.69398">
        <ele>284.424</ele>
        <time>2019-09-23T13:39:47.001Z</time>
      </trkpt>
      <trkpt lat="48.35479" lon="5.69416">
        <ele>291.566</ele>
        <time>2019-09-23T13:40:17.001Z</time>
      </trkpt>
      <trkpt lat="48.35494" lon="5.6953">
        <ele>296.982</ele>
        <time>2019-09-23T13:40:50.001Z</time>
      </trkpt>
      <trkpt lat="48.35508" lon="5.69638">
        <ele>303.528</ele>
        <time>2019-09-23T13:41:20.001Z</time>
      </trkpt>
      <trkpt lat="48.3543" lon="5.6964">
        <ele>309.263</ele>
        <time>2019-09-23T13:41:50.001Z</time>
      </trkpt>
      <trkpt lat="48.35416" lon="5.69479">
        <ele>305.056</ele>
        <time>2019-09-23T13:42:20.001Z</time>
      </trkpt>
      <trkpt lat="48.35429" lon="5.69338">
        <ele>297.94</ele>
        <time>2019-09-23T13:42:50.001Z</time>
      </trkpt>
      <trkpt lat="48.3533" lon="5.69514">
        <ele>288.864</ele>
        <time>2019-09-23T13:43:20.001Z</time>
      </trkpt>
      <trkpt lat="48.35246" lon="5.69671">
        <ele>285.983</ele>
        <time>2019-09-23T13:43:50.001Z</time>
      </trkpt>
      <trkpt lat="48.35167" lon="5.69644">
        <ele>284.333</ele>
        <time>2019-09-23T13:44:20.001Z</time>
      </trkpt>
      <trkpt lat="48.35088" lon="5.69578">
        <ele>279.803</ele>
        <time>2019-09-23T13:44:50.001Z</time>
      </trkpt>
      <trkpt lat="48.35009" lon="5.69455">
        <ele>281.246</ele>
        <time>2019-09-23T13:45:20.001Z</time>
      </trkpt>
      <trkpt lat="48.34963" lon="5.69455">
        <ele>285.263</ele>
        <time>2019-09-23T13:45:56.001Z</time>
      </trkpt>
      <trkpt lat="48.34906" lon="5.69535">
        <ele>293.175</ele>
        <time>2019-09-23T13:46:26.001Z</time>
      </trkpt>
      <trkpt lat="48.34898" lon="5.69557">
        <ele>293.889</ele>
        <time>2019-09-23T13:48:29.001Z</time>
      </trkpt>
      <trkpt lat="48.34977" lon="5.69436">
        <ele>291.761</ele>
        <time>2019-09-23T13:51:14.001Z</time>
      </trkpt>
      <trkpt lat="48.35097" lon="5.69587">
        <ele>283.269</ele>
        <time>2019-09-23T13:51:44.001Z</time>
      </trkpt>
      <trkpt lat="48.35194" lon="5.69686">
        <ele>278.856</ele>
        <time>2019-09-23T13:52:14.001Z</time>
      </trkpt>
      <trkpt lat="48.35271" lon="5.69617">
        <ele>278.318</ele>
        <time>2019-09-23T13:52:44.001Z</time>
      </trkpt>
      <trkpt lat="48.35365" lon="5.69457">
        <ele>274.817</ele>
        <time>2019-09-23T13:53:14.001Z</time>
      </trkpt>
      <trkpt lat="48.35388" lon="5.69301">
        <ele>272.006</ele>
        <time>2019-09-23T13:53:44.001Z</time>
      </trkpt>
    </trkseg>
  </trk>
</gpx>